createdAt,value
2023-02-09T00:02:12.909Z,-6.71
2023-02-09T00:04:39.584Z,-6.69
2023-02-09T00:07:06.191Z,-6.75
2023-02-09T00:09:35.119Z,-6.76
2023-02-09T00:12:20.222Z,-6.82
2023-02-09T00:14:46.653Z,-6.86
2023-02-09T00:17:13.542Z,-6.90
2023-02-09T00:19:40.216Z,-6.98
2023-02-09T00:22:06.912Z,-7.11
2023-02-09T00:24:33.486Z,-7.18
2023-02-09T00:27:00.045Z,-7.16
2023-02-09T00:29:27.567Z,-7.20
2023-02-09T00:31:54.271Z,-7.17
2023-02-09T00:34:20.914Z,-7.19
2023-02-09T00:36:47.558Z,-7.18
2023-02-09T00:39:14.157Z,-7.24
2023-02-09T00:41:59.564Z,-7.26
2023-02-09T00:44:26.234Z,-7.33
2023-02-09T00:46:52.820Z,-7.36
2023-02-09T00:49:20.016Z,-7.43
2023-02-09T00:51:47.145Z,-7.47
2023-02-09T00:54:14.587Z,-7.46
2023-02-09T00:56:41.144Z,-7.44
2023-02-09T00:59:07.671Z,-7.57
2023-02-09T01:01:34.413Z,-7.65
2023-02-09T01:04:01.051Z,-7.68
2023-02-09T01:06:27.708Z,-7.69
2023-02-09T01:08:54.586Z,-7.70
2023-02-09T01:11:22.960Z,-7.74
2023-02-09T01:13:49.544Z,-7.76
2023-02-09T01:16:18.359Z,-7.79
2023-02-09T01:18:45.216Z,-7.87
2023-02-09T01:21:18.530Z,-7.91
2023-02-09T01:23:46.324Z,-7.91
2023-02-09T01:26:15.862Z,-7.95
2023-02-09T01:28:43.009Z,-7.92
2023-02-09T01:31:38.893Z,-7.96
2023-02-09T01:34:05.742Z,-7.95
2023-02-09T01:36:33.618Z,-7.97
2023-02-09T01:39:02.203Z,-7.99
2023-02-09T01:41:29.156Z,-8.05
2023-02-09T01:44:10.907Z,-8.06
2023-02-09T01:46:40.170Z,-8.10
2023-02-09T01:49:13.470Z,-8.11
2023-02-09T01:51:52.418Z,-8.13
2023-02-09T01:54:23.193Z,-8.17
2023-02-09T01:56:55.203Z,-8.20
2023-02-09T01:59:21.868Z,-8.24
2023-02-09T02:01:48.547Z,-8.29
2023-02-09T02:04:15.840Z,-8.32
2023-02-09T02:06:42.788Z,-8.34
2023-02-09T02:09:13.270Z,-8.29
2023-02-09T02:11:44.167Z,-8.24
2023-02-09T02:14:29.876Z,-8.15
2023-02-09T02:16:58.042Z,-8.11
2023-02-09T02:19:45.541Z,-8.15
2023-02-09T02:22:36.454Z,-8.17
2023-02-09T02:25:02.912Z,-8.14
2023-02-09T02:27:47.848Z,-8.03
2023-02-09T02:30:20.582Z,-8.00
2023-02-09T02:33:06.684Z,-7.93
2023-02-09T02:35:43.432Z,-7.90
2023-02-09T02:38:22.036Z,-7.86
2023-02-09T02:40:57.735Z,-7.95
2023-02-09T02:43:33.908Z,-7.93
2023-02-09T02:46:30.749Z,-7.95
2023-02-09T02:49:10.072Z,-7.90
2023-02-09T02:51:43.543Z,-7.89
2023-02-09T02:54:17.139Z,-7.91
2023-02-09T02:56:49.032Z,-7.91
2023-02-09T02:59:20.985Z,-8.06
2023-02-09T03:01:57.511Z,-8.15
2023-02-09T03:04:28.313Z,-8.12
2023-02-09T03:06:54.873Z,-8.20
2023-02-09T03:09:21.433Z,-8.25
2023-02-09T03:11:51.775Z,-8.23
2023-02-09T03:14:39.344Z,-8.26
2023-02-09T03:17:39.820Z,-8.27
2023-02-09T03:20:13.750Z,-8.32
2023-02-09T03:22:45.245Z,-8.37
2023-02-09T03:25:31.611Z,-8.42
2023-02-09T03:28:09.719Z,-8.45
2023-02-09T03:30:37.828Z,-8.44
2023-02-09T03:33:06.067Z,-8.43
2023-02-09T03:35:39.257Z,-8.41
2023-02-09T03:38:08.586Z,-8.40
2023-02-09T03:40:35.342Z,-8.45
2023-02-09T03:43:01.887Z,-8.45
2023-02-09T03:45:32.780Z,-8.44
2023-02-09T04:32:07.368Z,-9.04
2023-02-09T04:34:33.968Z,-9.08
2023-02-09T04:37:00.544Z,-9.10
2023-02-09T04:39:27.150Z,-9.13
2023-02-09T04:41:55.828Z,-9.17
2023-02-09T04:44:22.384Z,-9.16
2023-02-09T04:46:50.033Z,-9.12
2023-02-09T04:49:16.660Z,-9.04
2023-02-09T04:51:43.214Z,-8.98
2023-02-09T04:54:09.861Z,-8.94
2023-02-09T04:56:38.173Z,-8.88
2023-02-09T04:59:23.760Z,-8.88
2023-02-09T05:01:50.194Z,-8.88
2023-02-09T05:04:16.761Z,-8.87
2023-02-09T05:06:43.324Z,-8.86
2023-02-09T05:09:10.072Z,-8.86
2023-02-09T05:11:36.638Z,-8.92
2023-02-09T05:14:03.222Z,-8.94
2023-02-09T05:16:29.877Z,-8.97
2023-02-09T05:18:56.456Z,-9.07
2023-02-09T05:21:22.968Z,-9.04
2023-02-09T05:23:49.558Z,-9.08
2023-02-09T05:26:16.121Z,-9.13
2023-02-09T05:28:42.696Z,-9.18
2023-02-09T05:31:09.309Z,-9.19
2023-02-09T05:33:35.872Z,-9.21
2023-02-09T05:36:09.053Z,-9.19
2023-02-09T05:38:36.362Z,-9.22
2023-02-09T05:41:09.792Z,-9.32
2023-02-09T05:43:37.164Z,-9.40
2023-02-09T05:46:07.062Z,-9.53
2023-02-09T05:48:34.719Z,-9.53
2023-02-09T05:51:01.466Z,-9.49
2023-02-09T05:53:27.996Z,-9.44
2023-02-09T05:55:54.523Z,-9.43
2023-02-09T05:58:21.072Z,-9.42
2023-02-09T06:00:47.907Z,-9.45
2023-02-09T06:03:14.631Z,-9.46
2023-02-09T06:05:44.983Z,-9.45
2023-02-09T06:08:11.544Z,-9.40
2023-02-09T06:10:38.192Z,-9.38
2023-02-09T06:13:05.745Z,-9.38
2023-02-09T06:15:32.501Z,-9.40
2023-02-09T06:17:59.029Z,-9.41
2023-02-09T06:20:25.597Z,-9.41
2023-02-09T06:22:52.170Z,-9.38
2023-02-09T06:25:18.829Z,-9.36
2023-02-09T06:27:45.473Z,-9.30
2023-02-09T06:30:12.517Z,-9.17
2023-02-09T06:32:39.100Z,-9.07
2023-02-09T06:35:06.025Z,-8.97
2023-02-09T06:37:32.863Z,-8.88
2023-02-09T06:39:59.445Z,-8.81
2023-02-09T06:42:43.821Z,-8.75
2023-02-09T06:45:15.454Z,-8.68
2023-02-09T06:47:46.086Z,-8.63
2023-02-09T06:50:14.626Z,-8.55
2023-02-09T06:52:41.220Z,-8.50
2023-02-09T06:55:08.124Z,-8.40
2023-02-09T06:57:37.747Z,-8.31
2023-02-09T07:00:07.193Z,-8.25
2023-02-09T07:02:33.949Z,-8.12
2023-02-09T07:05:00.725Z,-8.02
2023-02-09T07:07:27.370Z,-7.88
2023-02-09T07:09:53.939Z,-7.79
2023-02-09T07:12:20.548Z,-7.71
2023-02-09T07:14:47.065Z,-7.61
2023-02-09T07:17:13.599Z,-7.50
2023-02-09T07:19:40.123Z,-7.41
2023-02-09T07:22:06.783Z,-7.31
2023-02-09T07:24:33.352Z,-7.18
2023-02-09T07:26:59.945Z,-7.06
2023-02-09T07:29:26.529Z,-6.91
2023-02-09T07:31:53.152Z,-6.78
2023-02-09T07:34:19.696Z,-6.64
2023-02-09T07:36:47.988Z,-6.50
2023-02-09T07:39:15.262Z,-6.35
2023-02-09T07:41:42.171Z,-6.20
2023-02-09T07:44:12.243Z,-6.04
2023-02-09T07:46:38.878Z,-5.88
2023-02-09T07:49:05.458Z,-5.71
2023-02-09T07:51:34.080Z,-5.56
2023-02-09T07:54:00.949Z,-5.24
2023-02-09T07:56:28.542Z,-4.97
2023-02-09T07:58:55.847Z,-4.76
2023-02-09T08:01:23.376Z,-4.53
2023-02-09T08:03:51.155Z,-4.33
2023-02-09T08:06:42.429Z,-4.12
2023-02-09T08:09:11.033Z,-3.88
2023-02-09T08:11:43.921Z,-3.64
2023-02-09T08:14:20.480Z,-3.39
2023-02-09T08:16:48.807Z,-3.14
2023-02-09T08:19:21.053Z,-2.94
2023-02-09T08:21:49.668Z,-2.73
2023-02-09T08:24:18.381Z,-2.53
2023-02-09T08:26:45.613Z,-2.34
2023-02-09T08:29:12.855Z,-2.14
2023-02-09T08:31:40.588Z,-1.96
2023-02-09T08:34:07.308Z,-1.77
2023-02-09T08:36:34.375Z,-1.57
2023-02-09T08:39:01.027Z,-1.38
2023-02-09T08:41:27.600Z,-1.19
2023-02-09T08:43:54.225Z,-1.01
2023-02-09T08:46:20.977Z,-0.85
2023-02-09T08:48:47.755Z,-0.69
2023-02-09T08:51:15.668Z,-0.53
2023-02-09T08:53:43.390Z,-0.25
2023-02-09T08:56:10.017Z,-0.12
2023-02-09T08:58:36.636Z,-0.03
2023-02-09T09:01:03.899Z,0.07
2023-02-09T09:03:33.236Z,0.24
2023-02-09T09:06:02.157Z,0.40
2023-02-09T09:08:30.726Z,0.51
2023-02-09T09:10:57.708Z,0.74
2023-02-09T09:13:24.994Z,0.99
2023-02-09T09:15:52.705Z,1.36
2023-02-09T09:18:19.415Z,1.70
2023-02-09T09:20:45.981Z,2.10
2023-02-09T09:23:12.855Z,2.52
2023-02-09T09:25:40.551Z,2.99
2023-02-09T09:28:08.634Z,3.20
2023-02-09T09:30:36.242Z,3.55
2023-02-09T09:33:04.169Z,3.88
2023-02-09T09:35:31.715Z,4.19
2023-02-09T09:37:58.650Z,4.54
2023-02-09T09:40:32.478Z,4.99
2023-02-09T09:43:03.101Z,5.06
2023-02-09T09:45:33.356Z,5.42
2023-02-09T09:48:00.319Z,5.46
2023-02-09T09:50:26.846Z,5.70
2023-02-09T09:53:08.506Z,6.02
2023-02-09T09:55:36.963Z,6.18
2023-02-09T09:58:05.710Z,6.56
2023-02-09T10:00:38.755Z,7.11
2023-02-09T10:03:15.257Z,7.64
2023-02-09T10:05:43.554Z,7.90
2023-02-09T10:08:10.239Z,8.60
2023-02-09T10:10:55.013Z,8.86
2023-02-09T10:13:25.298Z,9.11
2023-02-09T10:15:56.676Z,9.13
2023-02-09T10:18:26.583Z,9.46
2023-02-09T10:20:56.760Z,9.90
2023-02-09T10:23:26.625Z,9.57
2023-02-09T10:25:59.270Z,9.89
2023-02-09T10:28:29.205Z,10.17
2023-02-09T10:30:59.681Z,10.46
2023-02-09T10:33:28.558Z,10.27
2023-02-09T10:36:03.166Z,10.70
2023-02-09T10:38:33.256Z,10.63
2023-02-09T10:41:01.072Z,10.99
2023-02-09T10:43:33.865Z,10.88
2023-02-09T10:46:03.751Z,11.10
2023-02-09T10:48:40.847Z,10.86
2023-02-09T10:51:17.516Z,11.62
2023-02-09T10:54:03.612Z,11.88
2023-02-09T10:56:42.315Z,11.44
2023-02-09T10:59:18.935Z,11.51
2023-02-09T11:01:55.154Z,11.11
2023-02-09T11:04:29.689Z,11.34
2023-02-09T11:07:01.077Z,11.85
2023-02-09T11:09:41.480Z,12.67
2023-02-09T11:12:12.524Z,12.95
2023-02-09T11:14:42.557Z,12.78
2023-02-09T11:17:12.142Z,12.97
2023-02-09T11:20:03.875Z,12.47
2023-02-09T11:22:39.320Z,12.34
2023-02-09T11:25:24.909Z,12.51
2023-02-09T11:28:04.251Z,13.15
2023-02-09T11:31:00.927Z,12.77
2023-02-09T11:33:39.327Z,12.61
2023-02-09T11:36:14.953Z,12.47
2023-02-09T11:38:52.934Z,12.37
2023-02-09T11:41:48.985Z,11.99
2023-02-09T11:44:40.648Z,13.19
2023-02-09T11:47:14.381Z,13.44
2023-02-09T11:49:46.156Z,13.50
2023-02-09T11:52:19.706Z,14.22
2023-02-09T11:54:50.367Z,13.73
2023-02-09T11:57:34.420Z,13.82
2023-02-09T12:00:05.155Z,13.88
2023-02-09T12:02:47.656Z,13.41
2023-02-09T12:05:17.975Z,13.43
2023-02-09T12:08:25.665Z,12.75
2023-02-09T12:11:15.639Z,13.12
2023-02-09T12:14:15.450Z,13.41
2023-02-09T12:16:47.361Z,13.23
2023-02-09T12:19:38.044Z,13.40
2023-02-09T12:22:35.048Z,13.82
2023-02-09T12:25:36.570Z,13.70
2023-02-09T12:28:08.801Z,14.25
2023-02-09T12:30:40.999Z,14.44
2023-02-09T12:33:16.589Z,14.88
2023-02-09T12:35:43.903Z,15.19
2023-02-09T12:38:19.196Z,15.20
2023-02-09T12:41:02.659Z,15.15
2023-02-09T12:43:31.946Z,15.51
2023-02-09T12:46:31.081Z,15.42
2023-02-09T12:49:12.785Z,14.96
2023-02-09T12:51:54.115Z,14.97
2023-02-09T12:54:42.554Z,15.09
2023-02-09T12:57:14.955Z,15.64
2023-02-09T12:59:50.671Z,15.79
2023-02-09T13:02:35.692Z,15.53
2023-02-09T13:05:12.959Z,16.31
2023-02-09T13:07:54.309Z,16.30
2023-02-09T13:10:42.496Z,16.15
2023-02-09T13:13:12.168Z,15.33
2023-02-09T13:16:00.272Z,15.41
2023-02-09T13:18:41.747Z,14.88
2023-02-09T13:21:47.835Z,15.61
2023-02-09T13:24:22.609Z,15.36
2023-02-09T13:26:54.923Z,14.89
2023-02-09T13:29:31.981Z,14.95
2023-02-09T13:32:01.689Z,14.86
2023-02-09T13:34:46.464Z,15.79
2023-02-09T13:37:31.734Z,15.11
2023-02-09T13:40:13.332Z,14.59
2023-02-09T13:43:03.294Z,14.45
2023-02-09T13:45:30.741Z,13.98
2023-02-09T13:48:00.567Z,13.37
2023-02-09T13:50:28.418Z,14.01
2023-02-09T13:53:08.140Z,13.86
2023-02-09T13:55:39.882Z,14.44
2023-02-09T13:58:08.966Z,14.05
2023-02-09T14:00:43.931Z,14.50
2023-02-09T14:03:19.966Z,13.70
2023-02-09T14:05:56.888Z,13.99
2023-02-09T14:08:25.544Z,13.36
2023-02-09T14:11:02.584Z,13.36
2023-02-09T14:13:42.600Z,13.63
2023-02-09T14:16:14.245Z,13.36
2023-02-09T14:18:45.498Z,12.98
2023-02-09T14:21:13.496Z,12.93
2023-02-09T14:23:42.892Z,12.73
2023-02-09T14:26:15.585Z,12.98
2023-02-09T14:28:46.715Z,13.37
2023-02-09T14:31:20.643Z,13.03
2023-02-09T14:33:55.332Z,12.71
2023-02-09T14:36:23.549Z,13.28
2023-02-09T14:38:51.703Z,12.89
2023-02-09T14:41:19.578Z,12.98
2023-02-09T14:43:58.035Z,12.39
2023-02-09T14:46:24.786Z,11.74
2023-02-09T14:48:55.669Z,12.49
2023-02-09T14:51:23.024Z,12.37
2023-02-09T14:53:50.202Z,12.10
2023-02-09T14:56:42.904Z,11.81
2023-02-09T14:59:19.684Z,11.37
2023-02-09T15:01:50.416Z,10.69
2023-02-09T15:04:17.171Z,10.51
2023-02-09T15:06:47.091Z,9.96
2023-02-09T15:09:33.486Z,9.03
2023-02-09T15:12:06.069Z,8.62
2023-02-09T15:14:45.677Z,8.06
2023-02-09T15:17:17.869Z,7.50
2023-02-09T15:19:45.452Z,7.40
2023-02-09T15:22:15.059Z,6.97
2023-02-09T15:24:47.389Z,6.88
2023-02-09T15:27:18.788Z,6.67
2023-02-09T15:29:45.414Z,6.24
2023-02-09T15:32:17.873Z,5.95
2023-02-09T15:34:44.706Z,5.82
2023-02-09T15:37:21.014Z,5.44
2023-02-09T15:39:50.458Z,5.03
2023-02-09T15:42:37.280Z,4.62
2023-02-09T15:45:32.618Z,4.56
2023-02-09T15:47:59.574Z,4.32
2023-02-09T15:50:28.513Z,4.27
2023-02-09T15:52:57.572Z,4.39
2023-02-09T15:55:28.009Z,4.05
2023-02-09T15:57:55.545Z,3.93
2023-02-09T16:00:25.518Z,3.52
2023-02-09T16:02:56.666Z,3.48
2023-02-09T16:05:27.308Z,3.60
2023-02-09T16:07:55.060Z,3.57
2023-02-09T16:10:26.044Z,3.42
2023-02-09T16:12:53.565Z,3.09
2023-02-09T16:15:23.059Z,2.85
2023-02-09T16:17:50.686Z,2.76
2023-02-09T16:20:19.133Z,2.60
2023-02-09T16:22:48.816Z,2.38
2023-02-09T16:25:22.085Z,2.39
2023-02-09T16:27:49.873Z,2.18
2023-02-09T16:30:28.220Z,1.56
2023-02-09T16:32:55.456Z,1.05
2023-02-09T16:35:24.434Z,0.59
2023-02-09T16:37:52.740Z,0.57
2023-02-09T16:40:33.566Z,0.47
2023-02-09T16:43:01.553Z,0.42
2023-02-09T16:45:31.219Z,0.38
2023-02-09T16:47:59.810Z,0.23
2023-02-09T16:50:33.476Z,0.06
2023-02-09T16:53:02.893Z,-0.22
2023-02-09T16:55:32.961Z,-0.50
2023-02-09T16:58:02.201Z,-0.70
2023-02-09T17:00:35.271Z,-0.70
2023-02-09T17:03:14.058Z,-0.71
2023-02-09T17:05:49.073Z,-0.73
2023-02-09T17:08:32.111Z,-0.71
2023-02-09T17:10:59.789Z,-0.91
2023-02-09T17:13:26.350Z,-1.03
2023-02-09T17:15:55.856Z,-1.08
2023-02-09T17:18:34.850Z,-1.22
2023-02-09T17:21:08.774Z,-1.32
2023-02-09T17:23:36.973Z,-1.32
2023-02-09T17:26:03.953Z,-1.29
2023-02-09T17:28:30.608Z,-1.26
2023-02-09T17:31:02.752Z,-1.38
2023-02-09T17:33:33.372Z,-1.53
2023-02-09T17:38:47.348Z,-1.87
2023-02-09T17:41:40.741Z,-2.03
2023-02-09T17:44:44.589Z,-2.19
2023-02-09T17:47:19.941Z,-2.20
2023-02-09T17:49:47.054Z,-2.24
2023-02-09T17:52:18.677Z,-2.35
2023-02-09T17:54:45.939Z,-2.38
2023-02-09T17:57:14.972Z,-2.41
2023-02-09T17:59:42.180Z,-2.50
2023-02-09T18:02:17.518Z,-2.50
2023-02-09T18:04:44.589Z,-2.54
2023-02-09T18:07:12.775Z,-2.51
2023-02-09T18:09:39.489Z,-2.54
2023-02-09T18:12:27.114Z,-2.60
2023-02-09T18:14:54.119Z,-2.63
2023-02-09T18:17:20.688Z,-2.67
2023-02-09T18:19:47.229Z,-2.84
2023-02-09T18:22:17.381Z,-2.84
2023-02-09T18:24:44.261Z,-2.90
2023-02-09T18:27:17.878Z,-2.91
2023-02-09T18:29:44.651Z,-2.89
2023-02-09T18:32:14.653Z,-3.01
2023-02-09T18:34:41.483Z,-3.18
2023-02-09T18:37:08.254Z,-3.30
2023-02-09T18:39:36.753Z,-3.39
2023-02-09T18:42:03.362Z,-3.37
2023-02-09T18:44:32.198Z,-3.41
2023-02-09T18:47:02.420Z,-3.33
2023-02-09T18:49:29.470Z,-3.34
2023-02-09T18:51:57.034Z,-3.40
2023-02-09T18:54:23.702Z,-3.45
2023-02-09T18:56:50.373Z,-3.35
2023-02-09T18:59:17.840Z,-3.27
2023-02-09T19:01:45.187Z,-3.25
2023-02-09T19:04:12.759Z,-3.30
2023-02-09T19:06:39.500Z,-3.31
2023-02-09T19:09:06.180Z,-3.42
2023-02-09T19:11:32.773Z,-3.40
2023-02-09T19:14:17.773Z,-3.38
2023-02-09T19:16:44.417Z,-3.40
2023-02-09T19:19:12.574Z,-3.46
2023-02-09T19:21:39.149Z,-3.51
2023-02-09T19:24:05.923Z,-3.60
2023-02-09T19:26:32.453Z,-3.78
2023-02-09T19:28:59.090Z,-3.98
2023-02-09T19:31:25.836Z,-3.97
2023-02-09T19:33:57.210Z,-3.94
2023-02-09T19:36:25.120Z,-3.94
2023-02-09T19:38:51.756Z,-3.97
2023-02-09T19:41:20.340Z,-4.03
2023-02-09T19:43:46.898Z,-4.09
2023-02-09T19:46:13.544Z,-4.12
2023-02-09T19:48:41.163Z,-4.14
2023-02-09T19:51:08.534Z,-4.15
2023-02-09T19:53:35.502Z,-4.19
2023-02-09T19:56:02.277Z,-4.22
2023-02-09T19:58:29.054Z,-4.20
2023-02-09T20:00:56.189Z,-4.23
2023-02-09T20:03:23.927Z,-4.26
2023-02-09T20:05:51.202Z,-4.34
2023-02-09T20:08:20.215Z,-4.35
2023-02-09T20:10:47.205Z,-4.38
2023-02-09T20:13:15.003Z,-4.45
2023-02-09T20:15:43.680Z,-4.50
2023-02-09T20:18:11.482Z,-4.54
2023-02-09T20:20:42.975Z,-4.58
2023-02-09T20:23:09.909Z,-4.57
2023-02-09T20:25:36.562Z,-4.59
2023-02-09T20:28:03.650Z,-4.60
2023-02-09T20:30:31.274Z,-4.65
2023-02-09T20:32:57.839Z,-4.70
2023-02-09T20:35:24.507Z,-4.71
2023-02-09T20:37:52.913Z,-4.69
2023-02-09T20:40:19.623Z,-4.72
2023-02-09T20:43:04.470Z,-4.77
2023-02-09T20:45:49.830Z,-4.72
2023-02-09T20:48:17.503Z,-4.72
2023-02-09T20:50:45.524Z,-4.76
2023-02-09T20:53:12.396Z,-4.80
2023-02-09T20:55:39.003Z,-4.85
2023-02-09T20:58:05.648Z,-4.92
2023-02-09T21:00:32.344Z,-4.99
2023-02-09T21:02:58.971Z,-5.02
2023-02-09T21:05:25.573Z,-5.07
2023-02-09T21:07:52.153Z,-5.13
2023-02-09T21:10:18.793Z,-5.27
2023-02-09T21:12:48.672Z,-5.33
2023-02-09T21:15:15.324Z,-5.39
2023-02-09T21:17:47.513Z,-5.45
2023-02-09T21:20:17.559Z,-5.46
2023-02-09T21:22:44.144Z,-5.56
2023-02-09T21:25:10.932Z,-5.65
2023-02-09T21:27:37.724Z,-5.70
2023-02-09T21:30:05.032Z,-5.80
2023-02-09T21:32:34.863Z,-5.82
2023-02-09T21:35:01.629Z,-5.81
2023-02-09T21:37:32.018Z,-5.82
2023-02-09T21:40:02.870Z,-5.80
2023-02-09T21:42:32.231Z,-5.77
2023-02-09T21:44:59.844Z,-5.73
2023-02-09T21:47:27.072Z,-5.72
2023-02-09T21:49:53.794Z,-5.79
2023-02-09T21:52:20.669Z,-5.91
2023-02-09T21:54:47.356Z,-6.07
2023-02-09T21:57:14.155Z,-6.18
2023-02-09T21:59:40.767Z,-6.29
2023-02-09T22:02:07.660Z,-6.29
2023-02-09T22:04:34.349Z,-6.26
2023-02-09T22:07:01.001Z,-6.30
2023-02-09T22:09:28.058Z,-6.32
2023-02-09T22:11:54.661Z,-6.35
2023-02-09T22:14:21.212Z,-6.45
2023-02-09T22:16:48.189Z,-6.49
2023-02-09T22:19:14.830Z,-6.50
2023-02-09T22:21:41.460Z,-6.53
2023-02-09T22:24:08.139Z,-6.62
2023-02-09T22:26:34.700Z,-6.69
2023-02-09T22:29:01.225Z,-6.73
2023-02-09T22:31:27.824Z,-6.80
2023-02-09T22:33:54.902Z,-6.85
2023-02-09T22:36:22.001Z,-6.92
2023-02-09T22:38:48.716Z,-7.01
2023-02-09T22:41:23.874Z,-7.13
2023-02-09T22:43:52.619Z,-7.20
2023-02-09T22:46:21.909Z,-7.26
2023-02-09T22:48:57.361Z,-7.26
2023-02-09T22:51:26.957Z,-7.23
2023-02-09T22:53:53.809Z,-7.18
2023-02-09T22:56:20.658Z,-7.11
2023-02-09T22:58:47.670Z,-7.15
2023-02-09T23:01:14.947Z,-7.15
2023-02-09T23:03:41.868Z,-7.13
2023-02-09T23:06:11.934Z,-7.15
2023-02-09T23:08:38.465Z,-7.16
2023-02-09T23:11:07.476Z,-7.19
2023-02-09T23:13:35.483Z,-7.25
2023-02-09T23:16:14.475Z,-7.27
2023-02-09T23:18:49.443Z,-7.26
2023-02-09T23:21:17.191Z,-7.27
2023-02-09T23:23:44.219Z,-7.26
2023-02-09T23:26:11.301Z,-7.26
2023-02-09T23:28:38.335Z,-7.24
2023-02-09T23:31:10.792Z,-7.23
2023-02-09T23:33:38.334Z,-7.22
2023-02-09T23:36:09.984Z,-7.26
2023-02-09T23:38:36.731Z,-7.27
2023-02-09T23:41:14.700Z,-7.24
2023-02-09T23:43:41.780Z,-7.30
2023-02-09T23:46:12.212Z,-7.33
2023-02-09T23:48:39.072Z,-7.36
2023-02-09T23:51:08.799Z,-7.42
2023-02-09T23:53:35.889Z,-7.45
2023-02-09T23:56:06.011Z,-7.46
2023-02-09T23:58:44.268Z,-7.44
